Sawyer County Airport
KHYR : now visible

Airfield :











YOU CAN JOIN US ON...

 
LOGIN :

Register | Disclaimer

   EN    FR    IT 

 









Legend :    VFR   Marginal VFR   IFR   Intensive IFR   Very Intensive IFR
Visi :
Ceiling :
>= 8 km
>= 3000ft
5 to 8 km
1000 to 3000 ft
1500m to 5 km
500 to 1000 ft
800 to 1500m
200 to 500 ft
< 800m
< 200 ft
Symbols :   Thunderstorms  Fog  Heavy snow  Heavy precipitations  Wind > 20 kt






- Airport Elevation : 1216 ft


KHYR - Sawyer County

CURRENT METAR :
  • 141953Z AUTO 31004KT 7SM -SN OVC017 M10/M14 A2981 RMK AO2 SLP119 P0000 T11001144

EXPIRED METARs :
  • 141853Z AUTO VRB04KT 5SM -SN BKN017 OVC042 M09/M14 A2979 RMK AO2 SLP113 P0000 T10941139
  • 141753Z AUTO VRB04KT 3SM -SN BKN017 OVC023 M09/M13 A2979 RMK AO2 SLP114 P0000 60000 T10941133 11078 21094 51007

TAF KHYR
Valid from the 14 at 18:00 until the 15 at 18:00 UTC


141739Z 1418/1518 33008KT 4SM -SN OVC015
FM142000 32008KT 6SM -SN OVC015
FM150100 32006KT P6SM VCSH BKN015
FM150600 00000KT P6SM SCT015
FM151700 21005KT P6SM SCT080



MET'MAP, your aeronautical weather chart ! - Copyright ORBIFLY December 2007 - Disclaimer

ORBIFLY MET'MAP TEAM :

Programming & Development : Alexandra Zaïnal
Concept & original design : Baudouin d'Aumeries
Assistance for programming : Marc-Olivier Méhu
Technical & hardware support : Manuel Goepfert

Contact : metmap@orbifly.com




SOURCES & CREDITS :

   NOAA       Earth
Advisory